sensor_id;sensor_type;location;lat;lon;timestamp;P1;durP1;ratioP1;P2;durP2;ratioP2
34573;SDS011;20809;49.594;8.734;2023-02-28T00:02:43;3.80;;;2.10;;
34573;SDS011;20809;49.594;8.734;2023-02-28T00:05:44;3.83;;;2.60;;
34573;SDS011;20809;49.594;8.734;2023-02-28T00:08:45;6.35;;;2.45;;
34573;SDS011;20809;49.594;8.734;2023-02-28T00:11:46;5.13;;;2.03;;
34573;SDS011;20809;49.594;8.734;2023-02-28T00:14:46;4.07;;;2.00;;
34573;SDS011;20809;49.594;8.734;2023-02-28T00:17:47;1.60;;;1.50;;
34573;SDS011;20809;49.594;8.734;2023-02-28T00:20:48;3.50;;;1.65;;
34573;SDS011;20809;49.594;8.734;2023-02-28T00:23:49;2.92;;;1.60;;
34573;SDS011;20809;49.594;8.734;2023-02-28T00:26:49;4.25;;;1.88;;
34573;SDS011;20809;49.594;8.734;2023-02-28T00:29:50;4.72;;;2.38;;
34573;SDS011;20809;49.594;8.734;2023-02-28T00:32:51;4.88;;;2.55;;
34573;SDS011;20809;49.594;8.734;2023-02-28T00:35:52;5.18;;;2.60;;
34573;SDS011;20809;49.594;8.734;2023-02-28T00:39:00;4.07;;;2.53;;
34573;SDS011;20809;49.594;8.734;2023-02-28T00:42:01;5.50;;;2.67;;
34573;SDS011;20809;49.594;8.734;2023-02-28T00:45:03;3.72;;;2.50;;
34573;SDS011;20809;49.594;8.734;2023-02-28T00:48:05;3.72;;;2.45;;
34573;SDS011;20809;49.594;8.734;2023-02-28T00:54:06;4.72;;;2.53;;
34573;SDS011;20809;49.594;8.734;2023-02-28T00:57:07;5.10;;;2.33;;
34573;SDS011;20809;49.594;8.734;2023-02-28T01:00:08;5.45;;;2.10;;
34573;SDS011;20809;49.594;8.734;2023-02-28T01:03:09;3.03;;;2.10;;
34573;SDS011;20809;49.594;8.734;2023-02-28T01:06:10;3.53;;;2.05;;
34573;SDS011;20809;49.594;8.734;2023-02-28T01:09:11;4.95;;;2.33;;
34573;SDS011;20809;49.594;8.734;2023-02-28T01:12:12;2.83;;;2.30;;
34573;SDS011;20809;49.594;8.734;2023-02-28T01:15:13;5.32;;;2.80;;
34573;SDS011;20809;49.594;8.734;2023-02-28T01:18:14;3.85;;;2.58;;
34573;SDS011;20809;49.594;8.734;2023-02-28T01:21:15;3.42;;;2.22;;
34573;SDS011;20809;49.594;8.734;2023-02-28T01:24:17;4.25;;;2.35;;
34573;SDS011;20809;49.594;8.734;2023-02-28T01:27:18;4.38;;;2.75;;
34573;SDS011;20809;49.594;8.734;2023-02-28T01:30:21;2.85;;;2.28;;
34573;SDS011;20809;49.594;8.734;2023-02-28T01:33:22;3.40;;;2.15;;
34573;SDS011;20809;49.594;8.734;2023-02-28T01:36:23;3.25;;;2.58;;
34573;SDS011;20809;49.594;8.734;2023-02-28T01:39:25;5.28;;;2.40;;
34573;SDS011;20809;49.594;8.734;2023-02-28T01:42:26;4.35;;;2.85;;
34573;SDS011;20809;49.594;8.734;2023-02-28T01:45:28;3.47;;;2.47;;
34573;SDS011;20809;49.594;8.734;2023-02-28T01:48:32;3.28;;;2.67;;
34573;SDS011;20809;49.594;8.734;2023-02-28T01:51:45;3.42;;;2.25;;
34573;SDS011;20809;49.594;8.734;2023-02-28T01:54:51;4.25;;;3.42;;
34573;SDS011;20809;49.594;8.734;2023-02-28T01:59:11;4.15;;;2.92;;
34573;SDS011;20809;49.594;8.734;2023-02-28T02:02:16;3.95;;;2.78;;
34573;SDS011;20809;49.594;8.734;2023-02-28T02:05:19;5.43;;;2.53;;
34573;SDS011;20809;49.594;8.734;2023-02-28T02:08:25;5.57;;;2.60;;
34573;SDS011;20809;49.594;8.734;2023-02-28T02:11:28;3.10;;;2.20;;
34573;SDS011;20809;49.594;8.734;2023-02-28T02:14:54;3.08;;;2.70;;
34573;SDS011;20809;49.594;8.734;2023-02-28T02:18:03;6.25;;;2.78;;
34573;SDS011;20809;49.594;8.734;2023-02-28T02:27:59;3.37;;;2.63;;
34573;SDS011;20809;49.594;8.734;2023-02-28T02:31:29;3.03;;;2.72;;
34573;SDS011;20809;49.594;8.734;2023-02-28T02:38:09;4.53;;;2.72;;
34573;SDS011;20809;49.594;8.734;2023-02-28T02:44:40;5.20;;;2.85;;
34573;SDS011;20809;49.594;8.734;2023-02-28T02:47:49;4.15;;;2.92;;
34573;SDS011;20809;49.594;8.734;2023-02-28T02:50:53;4.93;;;2.78;;
34573;SDS011;20809;49.594;8.734;2023-02-28T02:57:01;3.78;;;2.80;;
34573;SDS011;20809;49.594;8.734;2023-02-28T03:00:05;4.70;;;2.83;;
34573;SDS011;20809;49.594;8.734;2023-02-28T03:03:09;3.33;;;2.85;;
34573;SDS011;20809;49.594;8.734;2023-02-28T03:06:11;4.78;;;2.92;;
34573;SDS011;20809;49.594;8.734;2023-02-28T03:09:13;5.10;;;3.20;;
34573;SDS011;20809;49.594;8.734;2023-02-28T03:12:14;8.23;;;2.92;;
34573;SDS011;20809;49.594;8.734;2023-02-28T03:15:19;3.92;;;2.97;;
34573;SDS011;20809;49.594;8.734;2023-02-28T03:18:46;5.20;;;3.30;;
34573;SDS011;20809;49.594;8.734;2023-02-28T03:22:14;5.35;;;3.15;;
34573;SDS011;20809;49.594;8.734;2023-02-28T03:32:08;6.35;;;3.35;;
34573;SDS011;20809;49.594;8.734;2023-02-28T03:35:22;6.45;;;2.88;;
34573;SDS011;20809;49.594;8.734;2023-02-28T03:41:42;4.75;;;3.35;;
34573;SDS011;20809;49.594;8.734;2023-02-28T03:44:57;3.65;;;2.80;;
34573;SDS011;20809;49.594;8.734;2023-02-28T03:51:14;5.38;;;3.65;;
34573;SDS011;20809;49.594;8.734;2023-02-28T03:54:26;4.25;;;3.10;;
34573;SDS011;20809;49.594;8.734;2023-02-28T04:00:42;4.60;;;2.90;;
34573;SDS011;20809;49.594;8.734;2023-02-28T04:03:46;5.28;;;3.22;;
34573;SDS011;20809;49.594;8.734;2023-02-28T04:06:49;3.80;;;3.00;;
34573;SDS011;20809;49.594;8.734;2023-02-28T04:09:52;5.10;;;3.40;;
34573;SDS011;20809;49.594;8.734;2023-02-28T04:12:53;4.57;;;3.17;;
34573;SDS011;20809;49.594;8.734;2023-02-28T04:15:54;6.57;;;3.28;;
34573;SDS011;20809;49.594;8.734;2023-02-28T04:18:55;5.05;;;3.20;;
34573;SDS011;20809;49.594;8.734;2023-02-28T04:22:02;4.88;;;3.20;;
34573;SDS011;20809;49.594;8.734;2023-02-28T04:25:03;6.63;;;3.65;;
34573;SDS011;20809;49.594;8.734;2023-02-28T04:28:06;6.32;;;3.83;;
34573;SDS011;20809;49.594;8.734;2023-02-28T04:31:06;4.57;;;3.30;;
34573;SDS011;20809;49.594;8.734;2023-02-28T04:34:07;4.20;;;3.35;;
34573;SDS011;20809;49.594;8.734;2023-02-28T04:37:08;5.57;;;3.05;;
34573;SDS011;20809;49.594;8.734;2023-02-28T04:40:09;5.05;;;3.45;;
34573;SDS011;20809;49.594;8.734;2023-02-28T04:43:11;4.25;;;3.42;;
34573;SDS011;20809;49.594;8.734;2023-02-28T04:46:12;5.85;;;3.20;;
34573;SDS011;20809;49.594;8.734;2023-02-28T04:52:14;4.47;;;3.17;;
34573;SDS011;20809;49.594;8.734;2023-02-28T04:55:14;4.43;;;3.08;;
34573;SDS011;20809;49.594;8.734;2023-02-28T05:04:23;3.70;;;2.95;;
34573;SDS011;20809;49.594;8.734;2023-02-28T05:07:24;4.78;;;3.28;;
34573;SDS011;20809;49.594;8.734;2023-02-28T05:13:26;5.30;;;3.13;;
34573;SDS011;20809;49.594;8.734;2023-02-28T05:16:27;5.20;;;3.40;;
34573;SDS011;20809;49.594;8.734;2023-02-28T05:19:28;4.90;;;3.60;;
34573;SDS011;20809;49.594;8.734;2023-02-28T05:22:30;4.30;;;3.30;;
34573;SDS011;20809;49.594;8.734;2023-02-28T05:25:31;4.82;;;3.05;;
34573;SDS011;20809;49.594;8.734;2023-02-28T05:28:32;5.55;;;3.35;;
34573;SDS011;20809;49.594;8.734;2023-02-28T05:31:33;5.63;;;3.70;;
34573;SDS011;20809;49.594;8.734;2023-02-28T05:34:35;6.78;;;3.42;;
34573;SDS011;20809;49.594;8.734;2023-02-28T05:37:38;6.05;;;3.22;;
34573;SDS011;20809;49.594;8.734;2023-02-28T05:40:39;8.85;;;4.43;;
34573;SDS011;20809;49.594;8.734;2023-02-28T05:43:41;7.18;;;4.22;;
34573;SDS011;20809;49.594;8.734;2023-02-28T05:49:43;7.25;;;3.60;;
34573;SDS011;20809;49.594;8.734;2023-02-28T05:52:44;4.75;;;3.45;;
34573;SDS011;20809;49.594;8.734;2023-02-28T05:55:49;9.18;;;3.90;;
34573;SDS011;20809;49.594;8.734;2023-02-28T05:58:50;4.68;;;3.38;;
34573;SDS011;20809;49.594;8.734;2023-02-28T06:01:52;7.93;;;4.07;;
34573;SDS011;20809;49.594;8.734;2023-02-28T06:04:54;4.95;;;3.50;;
34573;SDS011;20809;49.594;8.734;2023-02-28T06:07:55;4.15;;;3.33;;
34573;SDS011;20809;49.594;8.734;2023-02-28T06:10:56;6.72;;;3.80;;
34573;SDS011;20809;49.594;8.734;2023-02-28T06:17:00;7.15;;;3.88;;
34573;SDS011;20809;49.594;8.734;2023-02-28T06:20:02;6.78;;;3.97;;
34573;SDS011;20809;49.594;8.734;2023-02-28T06:23:05;6.78;;;4.57;;
34573;SDS011;20809;49.594;8.734;2023-02-28T06:26:07;6.88;;;4.13;;
34573;SDS011;20809;49.594;8.734;2023-02-28T06:29:08;5.43;;;3.67;;
34573;SDS011;20809;49.594;8.734;2023-02-28T06:32:09;5.40;;;4.05;;
34573;SDS011;20809;49.594;8.734;2023-02-28T06:35:10;4.53;;;3.78;;
34573;SDS011;20809;49.594;8.734;2023-02-28T06:38:14;12.38;;;3.95;;
34573;SDS011;20809;49.594;8.734;2023-02-28T06:41:15;5.65;;;4.30;;
34573;SDS011;20809;49.594;8.734;2023-02-28T06:44:16;8.00;;;4.25;;
34573;SDS011;20809;49.594;8.734;2023-02-28T06:47:18;9.63;;;5.22;;
34573;SDS011;20809;49.594;8.734;2023-02-28T06:50:19;5.60;;;4.15;;
34573;SDS011;20809;49.594;8.734;2023-02-28T06:53:21;4.68;;;3.83;;
34573;SDS011;20809;49.594;8.734;2023-02-28T06:56:22;7.78;;;4.38;;
34573;SDS011;20809;49.594;8.734;2023-02-28T06:59:26;9.27;;;4.72;;
34573;SDS011;20809;49.594;8.734;2023-02-28T07:02:33;6.63;;;3.38;;
34573;SDS011;20809;49.594;8.734;2023-02-28T07:05:37;8.05;;;4.40;;
34573;SDS011;20809;49.594;8.734;2023-02-28T07:08:39;7.15;;;4.45;;
34573;SDS011;20809;49.594;8.734;2023-02-28T07:11:42;6.18;;;3.78;;
34573;SDS011;20809;49.594;8.734;2023-02-28T07:14:44;7.55;;;3.60;;
34573;SDS011;20809;49.594;8.734;2023-02-28T07:17:46;7.75;;;4.05;;
34573;SDS011;20809;49.594;8.734;2023-02-28T07:20:47;7.03;;;3.97;;
34573;SDS011;20809;49.594;8.734;2023-02-28T07:23:48;8.02;;;4.50;;
34573;SDS011;20809;49.594;8.734;2023-02-28T07:26:51;6.32;;;3.92;;
34573;SDS011;20809;49.594;8.734;2023-02-28T07:29:52;6.43;;;3.72;;
34573;SDS011;20809;49.594;8.734;2023-02-28T07:32:54;7.78;;;4.00;;
34573;SDS011;20809;49.594;8.734;2023-02-28T07:36:06;7.10;;;4.13;;
34573;SDS011;20809;49.594;8.734;2023-02-28T07:39:19;7.93;;;4.10;;
34573;SDS011;20809;49.594;8.734;2023-02-28T07:42:20;5.35;;;4.00;;
34573;SDS011;20809;49.594;8.734;2023-02-28T07:45:21;5.30;;;3.80;;
34573;SDS011;20809;49.594;8.734;2023-02-28T07:48:24;4.45;;;3.35;;
34573;SDS011;20809;49.594;8.734;2023-02-28T07:51:25;5.82;;;4.18;;
34573;SDS011;20809;49.594;8.734;2023-02-28T07:54:27;6.05;;;3.60;;
34573;SDS011;20809;49.594;8.734;2023-02-28T07:57:29;5.88;;;3.88;;
34573;SDS011;20809;49.594;8.734;2023-02-28T08:00:30;5.18;;;3.58;;
34573;SDS011;20809;49.594;8.734;2023-02-28T08:03:32;10.10;;;3.78;;
34573;SDS011;20809;49.594;8.734;2023-02-28T08:06:33;7.80;;;3.75;;
34573;SDS011;20809;49.594;8.734;2023-02-28T08:09:36;4.43;;;2.90;;
34573;SDS011;20809;49.594;8.734;2023-02-28T08:15:40;5.60;;;3.53;;
34573;SDS011;20809;49.594;8.734;2023-02-28T08:18:42;6.65;;;3.70;;
34573;SDS011;20809;49.594;8.734;2023-02-28T08:21:44;6.03;;;4.55;;
34573;SDS011;20809;49.594;8.734;2023-02-28T08:24:46;6.75;;;4.07;;
34573;SDS011;20809;49.594;8.734;2023-02-28T08:27:47;4.93;;;3.80;;
34573;SDS011;20809;49.594;8.734;2023-02-28T08:30:53;6.35;;;3.70;;
34573;SDS011;20809;49.594;8.734;2023-02-28T08:33:57;6.22;;;3.45;;
34573;SDS011;20809;49.594;8.734;2023-02-28T08:36:59;7.20;;;3.72;;
34573;SDS011;20809;49.594;8.734;2023-02-28T08:43:04;7.95;;;4.90;;
34573;SDS011;20809;49.594;8.734;2023-02-28T08:46:06;7.05;;;4.53;;
34573;SDS011;20809;49.594;8.734;2023-02-28T08:49:09;7.32;;;4.32;;
34573;SDS011;20809;49.594;8.734;2023-02-28T08:52:11;5.30;;;3.72;;
34573;SDS011;20809;49.594;8.734;2023-02-28T08:55:12;5.20;;;3.80;;
34573;SDS011;20809;49.594;8.734;2023-02-28T08:58:14;4.45;;;3.60;;
34573;SDS011;20809;49.594;8.734;2023-02-28T09:01:16;7.15;;;3.78;;
34573;SDS011;20809;49.594;8.734;2023-02-28T09:04:19;6.75;;;4.68;;
34573;SDS011;20809;49.594;8.734;2023-02-28T09:07:20;8.60;;;4.85;;
34573;SDS011;20809;49.594;8.734;2023-02-28T09:10:21;5.22;;;4.32;;
34573;SDS011;20809;49.594;8.734;2023-02-28T09:13:24;5.22;;;4.07;;
34573;SDS011;20809;49.594;8.734;2023-02-28T09:16:27;4.93;;;4.07;;
34573;SDS011;20809;49.594;8.734;2023-02-28T09:19:28;5.60;;;3.50;;
34573;SDS011;20809;49.594;8.734;2023-02-28T09:22:30;5.60;;;3.97;;
34573;SDS011;20809;49.594;8.734;2023-02-28T09:25:35;4.10;;;3.70;;
34573;SDS011;20809;49.594;8.734;2023-02-28T09:28:37;6.07;;;4.30;;
34573;SDS011;20809;49.594;8.734;2023-02-28T09:31:40;5.60;;;3.47;;
34573;SDS011;20809;49.594;8.734;2023-02-28T09:34:44;7.50;;;4.55;;
34573;SDS011;20809;49.594;8.734;2023-02-28T09:37:45;8.38;;;4.60;;
34573;SDS011;20809;49.594;8.734;2023-02-28T09:40:51;5.93;;;4.20;;
34573;SDS011;20809;49.594;8.734;2023-02-28T09:44:02;6.13;;;4.18;;
34573;SDS011;20809;49.594;8.734;2023-02-28T09:47:10;8.82;;;4.32;;
34573;SDS011;20809;49.594;8.734;2023-02-28T09:53:35;8.27;;;4.82;;
34573;SDS011;20809;49.594;8.734;2023-02-28T09:56:40;4.78;;;3.90;;
34573;SDS011;20809;49.594;8.734;2023-02-28T09:59:50;8.55;;;4.82;;
34573;SDS011;20809;49.594;8.734;2023-02-28T10:06:39;7.05;;;4.43;;
34573;SDS011;20809;49.594;8.734;2023-02-28T10:09:52;6.88;;;4.25;;
34573;SDS011;20809;49.594;8.734;2023-02-28T10:12:58;8.80;;;5.28;;
34573;SDS011;20809;49.594;8.734;2023-02-28T10:16:05;5.95;;;4.68;;
34573;SDS011;20809;49.594;8.734;2023-02-28T10:26:07;6.65;;;4.30;;
34573;SDS011;20809;49.594;8.734;2023-02-28T10:29:13;7.65;;;4.88;;
34573;SDS011;20809;49.594;8.734;2023-02-28T10:35:35;7.55;;;4.88;;
34573;SDS011;20809;49.594;8.734;2023-02-28T10:41:42;7.30;;;5.13;;
34573;SDS011;20809;49.594;8.734;2023-02-28T10:44:45;7.90;;;5.40;;
34573;SDS011;20809;49.594;8.734;2023-02-28T10:50:59;6.70;;;5.25;;
34573;SDS011;20809;49.594;8.734;2023-02-28T10:54:00;8.02;;;5.35;;
34573;SDS011;20809;49.594;8.734;2023-02-28T11:00:17;6.10;;;4.80;;
34573;SDS011;20809;49.594;8.734;2023-02-28T11:03:32;7.10;;;4.63;;
34573;SDS011;20809;49.594;8.734;2023-02-28T11:06:37;6.55;;;5.15;;
34573;SDS011;20809;49.594;8.734;2023-02-28T11:09:39;7.53;;;5.32;;
34573;SDS011;20809;49.594;8.734;2023-02-28T11:12:43;6.65;;;4.90;;
34573;SDS011;20809;49.594;8.734;2023-02-28T11:15:52;8.52;;;4.78;;
34573;SDS011;20809;49.594;8.734;2023-02-28T11:18:55;7.78;;;5.22;;
34573;SDS011;20809;49.594;8.734;2023-02-28T11:21:58;6.82;;;4.78;;
34573;SDS011;20809;49.594;8.734;2023-02-28T11:25:02;6.65;;;4.80;;
34573;SDS011;20809;49.594;8.734;2023-02-28T11:28:50;5.35;;;4.82;;
34573;SDS011;20809;49.594;8.734;2023-02-28T11:31:43;7.15;;;5.20;;
34573;SDS011;20809;49.594;8.734;2023-02-28T11:35:17;10.48;;;5.00;;
34573;SDS011;20809;49.594;8.734;2023-02-28T11:38:27;7.70;;;5.15;;
34573;SDS011;20809;49.594;8.734;2023-02-28T11:48:52;9.10;;;5.63;;
34573;SDS011;20809;49.594;8.734;2023-02-28T11:52:18;7.30;;;5.25;;
34573;SDS011;20809;49.594;8.734;2023-02-28T11:58:45;5.57;;;4.88;;
34573;SDS011;20809;49.594;8.734;2023-02-28T12:15:41;9.48;;;5.65;;
34573;SDS011;20809;49.594;8.734;2023-02-28T12:19:03;8.70;;;5.93;;
34573;SDS011;20809;49.594;8.734;2023-02-28T12:22:18;6.45;;;4.85;;
34573;SDS011;20809;49.594;8.734;2023-02-28T12:28:46;8.18;;;6.18;;
34573;SDS011;20809;49.594;8.734;2023-02-28T12:32:12;9.27;;;5.32;;
34573;SDS011;20809;49.594;8.734;2023-02-28T12:35:22;6.85;;;5.40;;
34573;SDS011;20809;49.594;8.734;2023-02-28T12:38:29;8.88;;;5.90;;
34573;SDS011;20809;49.594;8.734;2023-02-28T12:41:45;7.88;;;5.70;;
34573;SDS011;20809;49.594;8.734;2023-02-28T12:45:08;9.80;;;5.15;;
34573;SDS011;20809;49.594;8.734;2023-02-28T12:49:10;7.53;;;5.40;;
34573;SDS011;20809;49.594;8.734;2023-02-28T12:51:47;8.70;;;5.28;;
34573;SDS011;20809;49.594;8.734;2023-02-28T12:55:00;7.85;;;5.45;;
34573;SDS011;20809;49.594;8.734;2023-02-28T13:01:38;7.82;;;5.40;;
34573;SDS011;20809;49.594;8.734;2023-02-28T13:14:35;9.23;;;6.18;;
34573;SDS011;20809;49.594;8.734;2023-02-28T13:17:38;7.57;;;5.43;;
34573;SDS011;20809;49.594;8.734;2023-02-28T13:20:46;8.27;;;5.63;;
34573;SDS011;20809;49.594;8.734;2023-02-28T13:27:11;7.90;;;5.88;;
34573;SDS011;20809;49.594;8.734;2023-02-28T13:43:58;7.00;;;5.55;;
34573;SDS011;20809;49.594;8.734;2023-02-28T13:50:35;9.13;;;5.65;;
34573;SDS011;20809;49.594;8.734;2023-02-28T13:57:00;7.53;;;5.72;;
34573;SDS011;20809;49.594;8.734;2023-02-28T14:07:07;7.60;;;5.57;;
34573;SDS011;20809;49.594;8.734;2023-02-28T14:10:18;11.70;;;6.28;;
34573;SDS011;20809;49.594;8.734;2023-02-28T14:13:37;7.88;;;5.95;;
34573;SDS011;20809;49.594;8.734;2023-02-28T14:16:44;9.98;;;5.50;;
34573;SDS011;20809;49.594;8.734;2023-02-28T14:19:47;6.57;;;5.30;;
34573;SDS011;20809;49.594;8.734;2023-02-28T14:32:30;9.38;;;5.63;;
34573;SDS011;20809;49.594;8.734;2023-02-28T14:38:58;6.15;;;5.45;;
34573;SDS011;20809;49.594;8.734;2023-02-28T14:42:25;7.78;;;5.80;;
34573;SDS011;20809;49.594;8.734;2023-02-28T14:45:34;8.88;;;5.78;;
34573;SDS011;20809;49.594;8.734;2023-02-28T14:48:37;9.25;;;5.68;;
34573;SDS011;20809;49.594;8.734;2023-02-28T14:51:39;9.43;;;5.90;;
34573;SDS011;20809;49.594;8.734;2023-02-28T14:54:40;9.43;;;5.40;;
34573;SDS011;20809;49.594;8.734;2023-02-28T14:57:50;9.90;;;5.88;;
34573;SDS011;20809;49.594;8.734;2023-02-28T15:00:54;8.15;;;5.63;;
34573;SDS011;20809;49.594;8.734;2023-02-28T15:04:01;9.73;;;5.88;;
34573;SDS011;20809;49.594;8.734;2023-02-28T15:07:07;7.75;;;5.70;;
34573;SDS011;20809;49.594;8.734;2023-02-28T15:13:21;10.43;;;6.28;;
34573;SDS011;20809;49.594;8.734;2023-02-28T15:19:39;6.65;;;5.28;;
34573;SDS011;20809;49.594;8.734;2023-02-28T15:22:46;7.00;;;5.05;;
34573;SDS011;20809;49.594;8.734;2023-02-28T15:25:49;6.55;;;5.40;;
34573;SDS011;20809;49.594;8.734;2023-02-28T15:28:52;6.43;;;5.25;;
34573;SDS011;20809;49.594;8.734;2023-02-28T15:35:26;7.13;;;5.18;;
34573;SDS011;20809;49.594;8.734;2023-02-28T15:38:29;8.82;;;5.25;;
34573;SDS011;20809;49.594;8.734;2023-02-28T15:41:36;9.95;;;5.43;;
34573;SDS011;20809;49.594;8.734;2023-02-28T15:44:40;9.32;;;5.60;;
34573;SDS011;20809;49.594;8.734;2023-02-28T15:47:44;8.38;;;5.53;;
34573;SDS011;20809;49.594;8.734;2023-02-28T15:50:54;8.52;;;5.47;;
34573;SDS011;20809;49.594;8.734;2023-02-28T15:53:57;8.02;;;5.82;;
34573;SDS011;20809;49.594;8.734;2023-02-28T15:57:03;7.60;;;5.15;;
34573;SDS011;20809;49.594;8.734;2023-02-28T16:00:12;9.20;;;5.65;;
34573;SDS011;20809;49.594;8.734;2023-02-28T16:03:25;8.68;;;5.93;;
34573;SDS011;20809;49.594;8.734;2023-02-28T16:06:59;8.10;;;5.18;;
34573;SDS011;20809;49.594;8.734;2023-02-28T16:10:03;7.90;;;5.75;;
34573;SDS011;20809;49.594;8.734;2023-02-28T16:13:05;8.77;;;5.72;;
34573;SDS011;20809;49.594;8.734;2023-02-28T16:16:06;14.23;;;5.68;;
34573;SDS011;20809;49.594;8.734;2023-02-28T16:19:08;7.28;;;5.40;;
34573;SDS011;20809;49.594;8.734;2023-02-28T16:22:11;9.50;;;5.72;;
34573;SDS011;20809;49.594;8.734;2023-02-28T16:25:16;7.78;;;5.88;;
34573;SDS011;20809;49.594;8.734;2023-02-28T16:28:23;7.53;;;5.32;;
34573;SDS011;20809;49.594;8.734;2023-02-28T16:31:36;8.07;;;5.07;;
34573;SDS011;20809;49.594;8.734;2023-02-28T16:34:37;9.00;;;5.97;;
34573;SDS011;20809;49.594;8.734;2023-02-28T16:37:38;9.90;;;7.28;;
34573;SDS011;20809;49.594;8.734;2023-02-28T16:40:40;8.63;;;5.95;;
34573;SDS011;20809;49.594;8.734;2023-02-28T16:43:40;9.27;;;6.32;;
34573;SDS011;20809;49.594;8.734;2023-02-28T16:46:41;8.82;;;5.90;;
34573;SDS011;20809;49.594;8.734;2023-02-28T16:49:42;9.55;;;6.00;;
34573;SDS011;20809;49.594;8.734;2023-02-28T16:55:44;8.73;;;5.97;;
34573;SDS011;20809;49.594;8.734;2023-02-28T16:58:45;9.77;;;5.53;;
34573;SDS011;20809;49.594;8.734;2023-02-28T17:01:47;11.30;;;5.97;;
34573;SDS011;20809;49.594;8.734;2023-02-28T17:04:49;8.32;;;5.70;;
34573;SDS011;20809;49.594;8.734;2023-02-28T17:07:49;9.25;;;5.25;;
34573;SDS011;20809;49.594;8.734;2023-02-28T17:10:50;9.45;;;6.68;;
34573;SDS011;20809;49.594;8.734;2023-02-28T17:13:51;9.27;;;5.88;;
34573;SDS011;20809;49.594;8.734;2023-02-28T17:16:53;9.25;;;6.25;;
34573;SDS011;20809;49.594;8.734;2023-02-28T17:19:54;11.43;;;6.53;;
34573;SDS011;20809;49.594;8.734;2023-02-28T17:22:55;9.10;;;6.35;;
34573;SDS011;20809;49.594;8.734;2023-02-28T17:25:56;10.10;;;5.78;;
34573;SDS011;20809;49.594;8.734;2023-02-28T17:28:57;9.18;;;5.70;;
34573;SDS011;20809;49.594;8.734;2023-02-28T17:31:58;11.25;;;7.20;;
34573;SDS011;20809;49.594;8.734;2023-02-28T17:34:59;13.10;;;8.48;;
34573;SDS011;20809;49.594;8.734;2023-02-28T17:37:59;9.43;;;6.00;;
34573;SDS011;20809;49.594;8.734;2023-02-28T17:41:00;8.80;;;5.88;;
34573;SDS011;20809;49.594;8.734;2023-02-28T17:44:01;19.20;;;10.45;;
34573;SDS011;20809;49.594;8.734;2023-02-28T17:47:02;14.05;;;7.50;;
34573;SDS011;20809;49.594;8.734;2023-02-28T17:50:02;13.93;;;7.97;;
34573;SDS011;20809;49.594;8.734;2023-02-28T17:53:04;12.15;;;8.00;;
34573;SDS011;20809;49.594;8.734;2023-02-28T17:56:05;15.65;;;7.53;;
34573;SDS011;20809;49.594;8.734;2023-02-28T17:59:10;12.50;;;7.80;;
34573;SDS011;20809;49.594;8.734;2023-02-28T18:02:12;11.05;;;7.30;;
34573;SDS011;20809;49.594;8.734;2023-02-28T18:05:13;10.00;;;6.28;;
34573;SDS011;20809;49.594;8.734;2023-02-28T18:08:14;15.18;;;7.43;;
34573;SDS011;20809;49.594;8.734;2023-02-28T18:11:16;16.58;;;7.95;;
34573;SDS011;20809;49.594;8.734;2023-02-28T18:14:22;14.65;;;8.38;;
34573;SDS011;20809;49.594;8.734;2023-02-28T18:17:25;11.57;;;6.95;;
34573;SDS011;20809;49.594;8.734;2023-02-28T18:20:26;12.43;;;6.82;;
34573;SDS011;20809;49.594;8.734;2023-02-28T18:23:28;11.20;;;6.65;;
34573;SDS011;20809;49.594;8.734;2023-02-28T18:26:28;13.23;;;7.47;;
34573;SDS011;20809;49.594;8.734;2023-02-28T18:29:29;12.45;;;7.07;;
34573;SDS011;20809;49.594;8.734;2023-02-28T18:32:31;14.05;;;7.90;;
34573;SDS011;20809;49.594;8.734;2023-02-28T18:35:32;13.90;;;8.02;;
34573;SDS011;20809;49.594;8.734;2023-02-28T18:38:36;16.88;;;9.50;;
34573;SDS011;20809;49.594;8.734;2023-02-28T18:41:37;14.68;;;8.98;;
34573;SDS011;20809;49.594;8.734;2023-02-28T18:47:38;16.20;;;8.97;;
34573;SDS011;20809;49.594;8.734;2023-02-28T18:50:39;14.15;;;9.40;;
34573;SDS011;20809;49.594;8.734;2023-02-28T18:53:41;14.38;;;9.55;;
34573;SDS011;20809;49.594;8.734;2023-02-28T18:56:43;13.38;;;8.40;;
34573;SDS011;20809;49.594;8.734;2023-02-28T18:59:44;14.63;;;8.38;;
34573;SDS011;20809;49.594;8.734;2023-02-28T19:02:45;17.23;;;9.23;;
34573;SDS011;20809;49.594;8.734;2023-02-28T19:05:46;14.27;;;9.02;;
34573;SDS011;20809;49.594;8.734;2023-02-28T19:08:46;16.50;;;9.32;;
34573;SDS011;20809;49.594;8.734;2023-02-28T19:11:51;17.52;;;9.50;;
34573;SDS011;20809;49.594;8.734;2023-02-28T19:14:52;16.75;;;9.73;;
34573;SDS011;20809;49.594;8.734;2023-02-28T19:17:59;18.38;;;9.30;;
34573;SDS011;20809;49.594;8.734;2023-02-28T19:20:59;16.42;;;10.38;;
34573;SDS011;20809;49.594;8.734;2023-02-28T19:24:01;15.77;;;9.48;;
34573;SDS011;20809;49.594;8.734;2023-02-28T19:27:02;17.85;;;10.52;;
34573;SDS011;20809;49.594;8.734;2023-02-28T19:30:03;17.33;;;9.70;;
34573;SDS011;20809;49.594;8.734;2023-02-28T19:33:05;19.02;;;10.70;;
34573;SDS011;20809;49.594;8.734;2023-02-28T19:36:06;16.33;;;10.18;;
34573;SDS011;20809;49.594;8.734;2023-02-28T19:39:07;20.75;;;11.73;;
34573;SDS011;20809;49.594;8.734;2023-02-28T19:42:12;19.33;;;10.50;;
34573;SDS011;20809;49.594;8.734;2023-02-28T19:45:14;20.38;;;10.13;;
34573;SDS011;20809;49.594;8.734;2023-02-28T19:48:15;20.85;;;11.00;;
34573;SDS011;20809;49.594;8.734;2023-02-28T19:51:16;19.05;;;11.02;;
34573;SDS011;20809;49.594;8.734;2023-02-28T19:54:18;33.17;;;14.38;;
34573;SDS011;20809;49.594;8.734;2023-02-28T19:57:18;18.00;;;11.18;;
34573;SDS011;20809;49.594;8.734;2023-02-28T20:00:19;17.23;;;10.82;;
34573;SDS011;20809;49.594;8.734;2023-02-28T20:03:20;20.30;;;11.77;;
34573;SDS011;20809;49.594;8.734;2023-02-28T20:06:21;15.77;;;9.60;;
34573;SDS011;20809;49.594;8.734;2023-02-28T20:09:22;19.33;;;10.43;;
34573;SDS011;20809;49.594;8.734;2023-02-28T20:12:23;17.90;;;10.25;;
34573;SDS011;20809;49.594;8.734;2023-02-28T20:15:25;23.58;;;10.65;;
34573;SDS011;20809;49.594;8.734;2023-02-28T20:18:27;19.95;;;11.55;;
34573;SDS011;20809;49.594;8.734;2023-02-28T20:21:28;19.42;;;10.90;;
34573;SDS011;20809;49.594;8.734;2023-02-28T20:24:28;20.80;;;10.70;;
34573;SDS011;20809;49.594;8.734;2023-02-28T20:27:29;22.60;;;12.18;;
34573;SDS011;20809;49.594;8.734;2023-02-28T20:30:31;17.52;;;10.55;;
34573;SDS011;20809;49.594;8.734;2023-02-28T20:33:32;25.02;;;11.85;;
34573;SDS011;20809;49.594;8.734;2023-02-28T20:36:33;24.40;;;11.32;;
34573;SDS011;20809;49.594;8.734;2023-02-28T20:39:34;18.95;;;11.57;;
34573;SDS011;20809;49.594;8.734;2023-02-28T20:42:34;16.30;;;9.65;;
34573;SDS011;20809;49.594;8.734;2023-02-28T20:45:35;18.90;;;10.02;;
34573;SDS011;20809;49.594;8.734;2023-02-28T20:48:36;17.08;;;10.00;;
34573;SDS011;20809;49.594;8.734;2023-02-28T20:51:38;20.35;;;10.77;;
34573;SDS011;20809;49.594;8.734;2023-02-28T20:54:40;18.63;;;10.38;;
34573;SDS011;20809;49.594;8.734;2023-02-28T20:57:41;20.30;;;10.02;;
34573;SDS011;20809;49.594;8.734;2023-02-28T21:00:42;19.55;;;10.95;;
34573;SDS011;20809;49.594;8.734;2023-02-28T21:03:44;19.23;;;9.45;;
34573;SDS011;20809;49.594;8.734;2023-02-28T21:06:46;17.17;;;9.68;;
34573;SDS011;20809;49.594;8.734;2023-02-28T21:09:47;16.33;;;10.15;;
34573;SDS011;20809;49.594;8.734;2023-02-28T21:12:49;19.48;;;10.48;;
34573;SDS011;20809;49.594;8.734;2023-02-28T21:15:52;20.33;;;10.02;;
34573;SDS011;20809;49.594;8.734;2023-02-28T21:18:53;15.00;;;8.73;;
34573;SDS011;20809;49.594;8.734;2023-02-28T21:21:55;16.20;;;9.20;;
34573;SDS011;20809;49.594;8.734;2023-02-28T21:24:55;15.70;;;9.13;;
34573;SDS011;20809;49.594;8.734;2023-02-28T21:27:56;14.55;;;8.00;;
34573;SDS011;20809;49.594;8.734;2023-02-28T21:31:04;18.85;;;9.95;;
34573;SDS011;20809;49.594;8.734;2023-02-28T21:34:10;19.20;;;9.40;;